KLOZ 220153Z AUTO 00000KT 10SM CLR 22/17 A3022 RMK AO2 SLP222 T02170167